Tiempo atmosférico en la estación meteorológica de Es Mercadal, Illes Balears (77 m.)



Fecha
DESCASC
Temp. máxima en grados centígrados (hora)
DESCASC
Temp. mínima en grados centígrados (hora)
DESCASC
Temp. media en grados centígrados
DESCASC
Racha de viento máxima en m/sg (hora)
DESCASC
Velocidad máxima media en intervalos de 10 minutos(hora)
DESCASC
Precipitaciones diarias en mm
DESCASC
Precipitaciones de 00:00 a 06:00 en mm
DESCASC
Precipitaciones de 06:00 a 12:00 en mm
DESCASC
Precipitaciones de 12:00 a 18:00 en mm
DESCASC
Precipitaciones de 18:00 a 24:00 en mm
DESCASC
20-02-2020 15.5 (12:40) 7.6 (02:40) 11.5 6.11 (15:20) 3.89 (15:30) 0 0 0 0 0
19-02-2020 15 (16:20) 8.6 (00:00) 11.8 6.67 (10:30) 4.17 (13:50) 0 0 0 0 0
18-02-2020 13.4 (11:40) 9.3 (22:20) 11.3 13.61 (09:00) 8.61 (06:10) 0 0 0 0 0
17-02-2020 14.7 (16:10) 12.6 (05:20) 13.7 11.11 (02:00) 7.5 (00:30) 0 0 0 0 0
16-02-2020 15.2 (14:00) 12.1 (00:00) 13.7 11.94 (23:40) 7.22 (11:50) 0 0 0 0 0
15-02-2020 16.1 (12:40) 11 (00:00) 13.6 8.06 (23:00) 5.28 (22:50) 0 0 0 0 0
14-02-2020 16.7 (14:40) 9.9 (00:00) 13.3 5.56 (14:30) 3.61 (14:30) 0 0 0 0 0
13-02-2020 16.5 (14:30) 11 (00:00) 13.8 6.39 (02:20) 4.17 (02:20) 0 0 0 0 0
12-02-2020 14.9 (14:10) 10.4 (00:00) 12.6 7.5 (13:00) 5.83 (15:20) 0 0 0 0 0
11-02-2020 18.4 (11:00) 12.2 (00:00) 15.3 7.22 (12:00) 4.72 (12:50) 0 0 0 0 0
10-02-2020 18.2 (15:00) 12.5 (00:00) 15.4 11.11 (06:10) 7.5 (05:50) 0 0 0 0 0
09-02-2020 15.9 (13:30) 9.6 (00:00) 12.8 11.67 (23:30) 7.78 (23:10) 0 0 0 0 0
08-02-2020 15.1 (15:10) 8.2 (00:00) 11.7 7.5 (14:40) 5.56 (14:40) 0 0 0 0 0
07-02-2020 16 (13:30) 7.3 (00:00) 11.7 7.22 (10:50) 4.72 (14:20) 0 0 0 0 0
06-02-2020 15.3 (12:10) 5.8 (00:00) 10.6 8.89 (01:20) 5.83 (01:20) 0 0 0 0 0
05-02-2020 12.2 (12:20) 9.9 (00:00) 11 22.78 (01:10) 13.61 (00:50) 0 0 0 0 0
04-02-2020 19.6 (11:40) 11.9 (00:00) 15.8 22.5 (23:20) 14.17 (23:20) 0 0 0 0 0
03-02-2020 21.4 (15:40) 14.1 (23:30) 17.8 7.78 (02:50) 5 (02:40) 0 0 0 0 0
02-02-2020 20.1 (16:00) 12.4 (00:00) 16.3 11.11 (11:50) 7.78 (11:50) 0 0 0 0 0
01-02-2020 18 (14:50) 10.6 (00:00) 14.3 8.89 (11:20) 6.11 (11:50) 0.2 0.2 0 0 0
31-01-2020 17.5 (12:20) 9.9 (00:00) 13.7 6.11 (13:00) 4.72 (13:10) 0 0 0 0 0
30-01-2020 17.8 (13:40) 11.6 (00:00) 14.7 8.06 (09:30) 5.83 (10:10) 0 0 0 0 0
29-01-2020 17.7 (11:50) 11.9 (00:00) 14.8 7.22 (01:00) 5.83 (01:10) 0 0 0 0 0
28-01-2020 17.6 (15:00) 11.4 (00:00) 14.5 13.06 (00:10) 8.33 (13:00) 0 0 0 0 0
27-01-2020 14.6 (15:40) 8.8 (00:00) 11.7 13.89 (23:10) 9.72 (23:20) 0 0 0 0 0
26-01-2020 15.9 (14:00) 9.8 (00:00) 12.8 8.89 (03:00) 5.83 (02:10) 0 0 0 0 0
25-01-2020 16.4 (13:50) 8.3 (00:00) 12.3 8.61 (16:50) 5.83 (17:00) 0.2 0 0.2 0 0
24-01-2020 15.4 (13:40) 8.5 (00:00) 11.9 5.83 (14:10) 4.17 (14:10) 0.2 0 0.2 0 0
23-01-2020 17.6 (15:00) 10.2 (00:00) 13.9 13.33 (01:50) 7.78 (01:00) 2 2 0 0 0
22-01-2020 16 (13:20) 13.6 (00:00) 14.8 17.5 (13:20) 10 (12:10) 0.2 0 0 0 0.2

Gráficas

Temp. máximas Temp. mínimas Temp. medias Precipitaciones Rachas de viento máximas Velocidades máximas media en intervalos de 10 minutos

Datos horarios

Fecha y hora oficial Temperatura (ºC) Velocidad del viento (km/h) Dirección del viento Racha (km/h) Dirección de racha Precipitación (mm) Presión (hPa) Tendencia (hPa) Humedad (%)
2020-02-20 23:00:00 7.9 0 Calma 3 Sur 0 -- -- 90
2020-02-20 22:00:00 8.7 0 Calma 2 Sudeste 0 -- -- 88
2020-02-20 21:00:00 9.2 0 Calma 4 Sur 0 -- -- 87
2020-02-20 20:00:00 8.9 4 Sudoeste 5 Sudoeste 0 -- -- 87
2020-02-20 19:00:00 10.9 0 Calma 6 Norte 0 -- -- 76
2020-02-20 18:00:00 12.9 4 Norte 14 Norte 0 -- -- 71
2020-02-20 17:00:00 14.1 9 Norte 18 Norte 0 -- -- 64
2020-02-20 16:00:00 14.6 12 Norte 22 Norte 0 -- -- 61
2020-02-20 15:00:00 14.9 12 Norte 19 Norte 0 -- -- 66
2020-02-20 14:00:00 14.6 10 Norte 15 Norte 0 -- -- 63
2020-02-20 13:00:00 14.3 8 Norte 16 Norte 0 -- -- 63
2020-02-20 12:00:00 15 8 Norte 12 Norte 0 -- -- 60
2020-02-20 11:00:00 14.6 5 Norte 10 Norte 0 -- -- 62
2020-02-20 10:00:00 13 6 Noroeste 10 Noroeste 0 -- -- 69
2020-02-20 09:00:00 10.9 3 Oeste 8 Sudoeste 0 -- -- 84
2020-02-20 08:00:00 8.1 6 Sudoeste 8 Sudoeste 0 -- -- 89
2020-02-20 07:00:00 8 -- -- -- -- 0 -- -- 87
2020-02-20 06:00:00 8.3 0 Calma 2 Sudeste 0 -- -- 88
2020-02-20 05:00:00 8.4 2 Sudeste 8 Oeste 0 -- -- 88
2020-02-20 04:00:00 7.9 5 Oeste 7 Oeste 0 -- -- 87
2020-02-20 03:00:00 8.3 5 Oeste 8 Oeste 0 -- -- 87
2020-02-20 02:00:00 8.6 4 Sudoeste 6 Sudoeste 0 -- -- 83
2020-02-20 01:00:00 9.2 4 Sudoeste 10 Sudoeste 0 -- -- 80
2020-02-20 00:00:00 9.2 5 Oeste 9 Oeste 0 -- -- 81
2020-02-19 23:00:00 9.5 5 Oeste 14 Oeste 0 -- -- 80
2020-02-19 22:00:00 10.1 7 Noroeste 15 Noroeste 0 -- -- 77
2020-02-19 21:00:00 8.9 3 Oeste 8 Noroeste 0 -- -- 85
2020-02-19 20:00:00 9.8 3 Sudoeste 9 Sudoeste 0 -- -- 82
2020-02-19 19:00:00 10.7 4 Oeste 15 Sudoeste 0 -- -- 76
2020-02-19 18:00:00 12.9 2 Noroeste 20 Sudoeste 0 -- -- 69
2020-02-19 17:00:00 14.3 5 Noroeste 10 Oeste 0 -- -- 65
2020-02-19 16:00:00 14 7 Sudoeste 13 Nordeste 0 -- -- 62
2020-02-19 15:00:00 13.8 8 Norte 20 Norte 0 -- -- 63
2020-02-19 14:00:00 14 14 Nordeste 23 Norte 0 -- -- 64
2020-02-19 13:00:00 13 14 Norte 22 Norte 0 -- -- 67
2020-02-19 12:00:00 12.8 14 Nordeste 22 Norte 0 -- -- 70
2020-02-19 11:00:00 12.8 12 Norte 24 Nordeste 0 -- -- 68
2020-02-19 10:00:00 11.8 7 Norte 10 Norte 0 -- -- 73
2020-02-19 09:00:00 11.7 0 Calma 4 Sudoeste 0 -- -- 76
2020-02-19 08:00:00 9.7 2 Sudoeste 5 Oeste 0 -- -- 79
2020-02-19 07:00:00 9.8 4 Oeste 6 Este 0 -- -- 77
2020-02-19 06:00:00 10.5 5 Noroeste 9 Noroeste 0 -- -- 73
2020-02-19 05:00:00 10.2 4 Noroeste 10 Norte 0 -- -- 76
2020-02-19 04:00:00 10 5 Noroeste 13 Norte 0 -- -- 79
2020-02-19 03:00:00 10.5 6 Norte 13 Norte 0 -- -- 76
2020-02-19 02:00:00 9.7 2 Noroeste 6 Noroeste 0 -- -- 79
2020-02-19 01:00:00 9.4 4 Noroeste 8 Noroeste 0 -- -- 78
2020-02-19 00:00:00 9.7 5 Noroeste 8 Noroeste 0 -- -- 79
2020-02-18 23:00:00 9.6 4 Noroeste 6 Noroeste 0 -- -- 81
2020-02-18 22:00:00 9.6 0 Calma 4 Oeste 0 -- -- 80
2020-02-18 21:00:00 9.5 0 Calma 4 Noroeste 0 -- -- 81
2020-02-18 20:00:00 9.6 3 Noroeste 6 Oeste 0 -- -- 78
2020-02-18 19:00:00 10.5 4 Noroeste 10 Noroeste 0 -- -- 74
2020-02-18 18:00:00 11.3 6 Norte 17 Norte 0 -- -- 73
2020-02-18 17:00:00 12.1 10 Norte 27 Norte 0 -- -- 69
2020-02-18 16:00:00 12.4 19 Norte 33 Norte 0 -- -- 68
2020-02-18 15:00:00 12.7 24 Norte 37 Norte 0 -- -- 66
2020-02-18 14:00:00 12.6 23 Norte 38 Norte 0 -- -- 64
2020-02-18 13:00:00 12.6 22 Norte 40 Norte 0 -- -- 64
2020-02-18 12:00:00 13.3 24 Norte 39 Norte 0 -- -- 64
2020-02-18 11:00:00 13.1 24 Norte 40 Norte 0 -- -- 65
2020-02-18 10:00:00 12.3 23 Norte 43 Norte 0 -- -- 66
2020-02-18 09:00:00 12.3 28 Norte 49 Norte 0 -- -- 66
2020-02-18 08:00:00 12.3 26 Norte 45 Nordeste 0 -- -- 64
2020-02-18 07:00:00 12.2 27 Norte 46 Nordeste 0 -- -- 65
2020-02-18 06:00:00 12 26 Norte 41 Nordeste 0 -- -- 70
2020-02-18 05:00:00 12.3 18 Nordeste 32 Norte 0 -- -- 75
2020-02-18 04:00:00 12.3 20 Nordeste 33 Nordeste 0 -- -- 75
2020-02-18 03:00:00 12.2 19 Nordeste 35 Nordeste 0 -- -- 77
2020-02-18 02:00:00 12.4 14 Norte 22 Norte 0 -- -- 82
2020-02-18 01:00:00 12.4 10 Nordeste 33 Norte 0 -- -- 82
2020-02-18 00:00:00 13.2 18 Nordeste 39 Norte 0 -- -- 82
2020-02-17 23:00:00 13.5 19 Norte 29 Norte 0 -- -- 86
2020-02-17 22:00:00 13.3 15 Norte 22 Norte 0 -- -- 90
2020-02-17 21:00:00 13.7 10 Noroeste 22 Noroeste 0 -- -- 85
2020-02-17 20:00:00 13.5 4 Norte 10 Norte 0 -- -- 86
2020-02-17 19:00:00 13.8 3 Norte 7 Norte 0 -- -- 85
2020-02-17 18:00:00 14.3 3 Oeste 15 Sudoeste 0 -- -- 83
2020-02-17 17:00:00 14.5 10 Oeste 19 Sudoeste 0 -- -- 81
2020-02-17 16:00:00 14.5 10 Oeste 24 Sur 0 -- -- 80
2020-02-17 15:00:00 14 15 Sudoeste 33 Sudoeste 0 -- -- 81
2020-02-17 14:00:00 13.7 21 Sudoeste 34 Sudoeste 0 -- -- 83
2020-02-17 13:00:00 13.6 21 Sudoeste 37 Sudoeste 0 -- -- 83
2020-02-17 12:00:00 13.4 22 Sudoeste 36 Sudoeste 0 -- -- 83
2020-02-17 11:00:00 13.3 19 Sudoeste 36 Sudoeste 0 -- -- 82
2020-02-17 10:00:00 13.3 24 Sudoeste 35 Sur 0 -- -- 83
2020-02-17 09:00:00 13.2 18 Sur 27 Sudoeste 0 -- -- 84
2020-02-17 08:00:00 13 14 Sur 26 Sudoeste 0 -- -- 84
2020-02-17 07:00:00 12.9 13 Sur 25 Sur 0 -- -- 85
2020-02-17 06:00:00 12.8 10 Sur 28 Sur 0 -- -- 86
2020-02-17 05:00:00 12.7 10 Sur 24 Sur 0 -- -- 84
2020-02-17 04:00:00 12.9 11 Sudoeste 35 Sudoeste 0 -- -- 84
2020-02-17 03:00:00 13.1 23 Sur 38 Sur 0 -- -- 82
2020-02-17 02:00:00 13.3 23 Sur 40 Sudoeste 0 -- -- 83
2020-02-17 01:00:00 13.4 23 Sur 37 Sur 0 -- -- 80
2020-02-17 00:00:00 13.5 23 Sur 43 Sur 0 -- -- 80
2020-02-16 23:00:00 13.6 23 Sur 39 Sur 0 -- -- 79
2020-02-16 22:00:00 13.5 22 Sur 40 Sur 0 -- -- 79
2020-02-16 21:00:00 13.6 25 Sur 39 Sur 0 -- -- 78
2020-02-16 20:00:00 13.6 23 Sur 37 Sur 0 -- -- 79
2020-02-16 19:00:00 13.1 21 Sur 35 Sur 0 -- -- 80
2020-02-16 18:00:00 13.3 22 Sur 37 Sur 0 -- -- 78
2020-02-16 17:00:00 14.4 20 Sur 35 Sudoeste 0 -- -- 75
2020-02-16 16:00:00 14.6 20 Sur 33 Sur 0 -- -- 78
2020-02-16 15:00:00 15.2 23 Sur 35 Sur 0 -- -- 76
2020-02-16 14:00:00 15.2 17 Sur 36 Sudoeste 0 -- -- 77
2020-02-16 13:00:00 14.6 20 Sudoeste 37 Sudoeste 0 -- -- 77
2020-02-16 12:00:00 14.2 24 Sudoeste 37 Sudoeste 0 -- -- 78
2020-02-16 11:00:00 14 23 Sudoeste 33 Sur 0 -- -- 77
2020-02-16 10:00:00 13.6 15 Sudoeste 29 Sur 0 -- -- 78
2020-02-16 09:00:00 13.2 14 Sudoeste 30 Sudoeste 0 -- -- 81
2020-02-16 08:00:00 12.6 14 Sur 25 Sur 0 -- -- 83
2020-02-16 07:00:00 12.4 15 Sur 25 Sur 0 -- -- 85
2020-02-16 06:00:00 12.1 4 Sudoeste 9 Sur 0 -- -- 87
2020-02-16 05:00:00 12.3 6 Sudoeste 19 Sudoeste 0 -- -- 85
2020-02-16 04:00:00 12.5 9 Sudoeste 21 Sudoeste 0 -- -- 85
2020-02-16 03:00:00 12.5 12 Sudoeste 23 Sudoeste 0 -- -- 85
2020-02-16 02:00:00 12.5 14 Sudoeste 23 Sudoeste 0 -- -- 85
2020-02-16 01:00:00 12.8 16 Sudoeste 25 Sudoeste 0 -- -- 86
2020-02-16 00:00:00 12.9 15 Sudoeste 22 Sudoeste 0 -- -- 88
2020-02-15 23:00:00 12.9 15 Sudoeste 29 Sudoeste 0 -- -- 88
2020-02-15 22:00:00 12.3 10 Sudoeste 26 Sudoeste 0 -- -- 90
2020-02-15 21:00:00 12.1 11 Sur 26 Sur 0 -- -- 89
2020-02-15 20:00:00 12.3 13 Sur 20 Sur 0 -- -- 89
2020-02-15 19:00:00 12.2 5 Sur 18 Sudoeste 0 -- -- 88
2020-02-15 18:00:00 12.7 10 Sur 20 Sur 0 -- -- 85
2020-02-15 17:00:00 14.2 14 Sur 24 Sur 0 -- -- 79
2020-02-15 16:00:00 15.2 12 Sur 21 Sur 0 -- -- 76
2020-02-15 15:00:00 14.9 14 Sur 22 Sudoeste 0 -- -- 79
2020-02-15 14:00:00 14.8 17 Sudoeste 23 Sur 0 -- -- 79
2020-02-15 13:00:00 15 15 Sudoeste 23 Sur 0 -- -- 77
2020-02-15 12:00:00 15.6 14 Sur 21 Sur 0 -- -- 79
2020-02-15 11:00:00 14.3 15 Sur 21 Sur 0 -- -- 84
2020-02-15 10:00:00 14.1 10 Sudeste 13 Sudeste 0 -- -- 91
2020-02-15 09:00:00 12.4 2 Sudoeste 13 Sur 0 -- -- 92
2020-02-15 08:00:00 11.5 6 Sudoeste 10 Sudeste 0 -- -- 92
2020-02-15 07:00:00 11.6 9 Sur 14 Sur 0 -- -- 91
2020-02-15 06:00:00 11.7 4 Sur 11 Sudoeste 0 -- -- 90
2020-02-15 05:00:00 11.5 2 Sudoeste 6 Sur 0 -- -- 92
2020-02-15 04:00:00 11.9 3 Sur 5 Sudeste 0 -- -- 91
2020-02-15 03:00:00 12.2 4 Sur 10 Oeste 0 -- -- 90
2020-02-15 02:00:00 11.7 4 Sudoeste 7 Sudoeste 0 -- -- 92
2020-02-15 01:00:00 11 2 Sudoeste 5 Sudoeste 0 -- -- 91
2020-02-15 00:00:00 11.4 0 Calma 7 Sur 0 -- -- 89
2020-02-14 23:00:00 12.4 5 Sudeste 11 Sudeste 0 -- -- 87
2020-02-14 22:00:00 12.6 4 Sur 8 Sudeste 0 -- -- 85
2020-02-14 21:00:00 12.4 3 Sudeste 5 Sudoeste 0 -- -- 85
2020-02-14 20:00:00 12.8 0 Calma 7 Nordeste 0 -- -- 82
2020-02-14 19:00:00 13 4 Nordeste 10 Este 0 -- -- 81
2020-02-14 18:00:00 13.2 6 Nordeste 10 Nordeste 0 -- -- 81
2020-02-14 17:00:00 14.1 8 Nordeste 14 Nordeste 0 -- -- 77
2020-02-14 16:00:00 14.9 11 Nordeste 17 Nordeste 0 -- -- 75
2020-02-14 15:00:00 15.4 12 Nordeste 20 Sudeste 0 -- -- 74
2020-02-14 14:00:00 15.5 5 Nordeste 18 Nordeste 0 -- -- 77
2020-02-14 13:00:00 15.2 10 Este 19 Este 0 -- -- 79
2020-02-14 12:00:00 16 5 Sudeste 17 Sudeste 0 -- -- 78
2020-02-14 11:00:00 15.8 8 Sudeste 15 Sudeste 0 -- -- 93
2020-02-14 10:00:00 13.4 5 Sudoeste 8 Sur 0 -- -- 95
2020-02-14 09:00:00 12.5 0 Calma 5 Oeste 0 -- -- 97
2020-02-14 08:00:00 10.5 4 Sudoeste 6 Sudeste 0 -- -- 97
2020-02-14 07:00:00 10.8 5 Sudoeste 10 Oeste 0 -- -- 96
2020-02-14 06:00:00 10.8 2 Sur 5 Oeste 0 -- -- 97
2020-02-14 05:00:00 9.9 3 Oeste 5 Sudoeste 0 -- -- 96
2020-02-14 04:00:00 10.6 2 Sudeste 8 Sudeste 0 -- -- 96
2020-02-14 03:00:00 11.3 8 Sudeste 10 Sudeste 0 -- -- 95
2020-02-14 02:00:00 11.7 3 Sur 7 Sur 0 -- -- 95
2020-02-14 01:00:00 11.8 4 Sur 13 Sudoeste 0 -- -- 95
2020-02-14 00:00:00 12.4 7 Sudoeste 13 Sudoeste 0 -- -- 95
2020-02-13 23:00:00 12.4 5 Sur 10 Sudoeste 0 -- -- 95
2020-02-13 22:00:00 12.7 8 Sudoeste 12 Sur 0 -- -- 95
2020-02-13 21:00:00 12.5 4 Sur 19 Sudoeste 0 -- -- 93
2020-02-13 20:00:00 12.8 10 Sur 14 Sudoeste 0 -- -- 92
2020-02-13 19:00:00 13.1 10 Sudoeste 14 Sudoeste 0 -- -- 90
2020-02-13 18:00:00 13.9 10 Sudoeste 16 Sudoeste 0 -- -- 85
2020-02-13 17:00:00 15.6 12 Sudoeste 18 Sudoeste 0 -- -- 76
2020-02-13 16:00:00 16.5 13 Sudoeste 21 Sudoeste 0 -- -- 73
2020-02-13 15:00:00 15.9 13 Sudoeste 21 Sur 0 -- -- 75
2020-02-13 14:00:00 15.3 9 Sudoeste 15 Sudoeste 0 -- -- 78
2020-02-13 13:00:00 15.1 8 Sur 14 Sur 0 -- -- 79
2020-02-13 12:00:00 14.8 9 Sudoeste 15 Sudoeste 0 -- -- 82
2020-02-13 11:00:00 14.3 10 Sur 21 Sur 0 -- -- 84
2020-02-13 10:00:00 13.8 12 Sur 19 Sur 0 -- -- 87
2020-02-13 09:00:00 12.6 9 Sur 16 Sur 0 -- -- 90
2020-02-13 08:00:00 11.7 3 Sur 12 Sur 0 -- -- 91
2020-02-13 07:00:00 11.7 6 Sudoeste 12 Sur 0 -- -- 90
2020-02-13 06:00:00 11.7 6 Sudoeste 13 Sur 0 -- -- 90
2020-02-13 05:00:00 11.7 9 Sur 15 Sur 0 -- -- 90
2020-02-13 04:00:00 11.7 7 Sur 18 Sur 0 -- -- 89
2020-02-13 03:00:00 11.6 10 Sur 23 Sur 0 -- -- 86
2020-02-13 02:00:00 11.9 12 Sur 18 Sur 0 -- -- 84
2020-02-13 01:00:00 11.4 9 Sur 19 Sur 0 -- -- 83
2020-02-13 00:00:00 11 4 Sur 7 Sur 0 -- -- 84
2020-02-12 23:00:00 10.9 2 Sur 8 Sur 0 -- -- 83
2020-02-12 22:00:00 10.6 3 Sur 5 Sudeste 0 -- -- 83
2020-02-12 21:00:00 10.5 2 Oeste 5 Este 0 -- -- 84
2020-02-12 20:00:00 10.9 2 Nordeste 13 Este 0 -- -- 82
2020-02-12 19:00:00 11.3 2 Nordeste 13 Este 0 -- -- 79
2020-02-12 18:00:00 12.1 6 Este 18 Nordeste 0 -- -- 76
2020-02-12 17:00:00 12.8 14 Nordeste 25 Nordeste 0 -- -- 74
2020-02-12 16:00:00 13.3 14 Nordeste 27 Nordeste 0 -- -- 74
2020-02-12 15:00:00 13.9 18 Nordeste 25 Este 0 -- -- 71
2020-02-12 14:00:00 14.5 13 Este 25 Nordeste 0 -- -- 71
2020-02-12 13:00:00 14.5 18 Este 27 Este 0 -- -- 72
2020-02-12 12:00:00 13.2 9 Este 22 Nordeste 0 -- -- 76
2020-02-12 11:00:00 12.3 10 Nordeste 24 Nordeste 0 -- -- 81
2020-02-12 10:00:00 12.8 8 Nordeste 18 Nordeste 0 -- -- 86
2020-02-12 09:00:00 13.2 5 Sudeste 9 Sudeste 0 -- -- 90
2020-02-12 08:00:00 12.2 5 Sudeste 12 Sudeste 0 -- -- 91
2020-02-12 07:00:00 12.3 6 Sudeste 18 Este 0 -- -- 92
2020-02-12 06:00:00 12.7 7 Sudeste 16 Sudeste 0 -- -- 93
2020-02-12 05:00:00 12.8 5 Sudeste 21 Sudeste 0 -- -- 93
2020-02-12 04:00:00 12.6 12 Sudeste 23 Sudeste 0 -- -- 92
2020-02-12 03:00:00 12.7 10 Sudeste 24 Este 0 -- -- 92
2020-02-12 02:00:00 12.5 12 Sudeste 19 Sudeste 0 -- -- 92
2020-02-12 01:00:00 12.4 9 Sudeste 15 Sudeste 0 -- -- 91
2020-02-12 00:00:00 12.4 7 Sudeste 16 Sudeste 0 -- -- 90
2020-02-11 23:00:00 12.4 2 Sudeste 13 Sudeste 0 -- -- 89
2020-02-11 22:00:00 12.8 4 Sur 10 Sudeste 0 -- -- 89
2020-02-11 21:00:00 12.9 3 Sudeste 10 Este 0 -- -- 87
2020-02-11 20:00:00 13.2 3 Sudeste 7 Este 0 -- -- 86
2020-02-11 19:00:00 13.5 3 Sur 20 Sudeste 0 -- -- 84
2020-02-11 18:00:00 14.5 10 Sudeste 23 Sudeste 0 -- -- 79
2020-02-11 17:00:00 15.9 14 Sudeste 24 Sudeste 0 -- -- 74
2020-02-11 16:00:00 18.3 7 Este 20 Nordeste 0 -- -- 71
2020-02-11 15:00:00 17.1 12 Nordeste 19 Nordeste 0 -- -- 74
2020-02-11 14:00:00 17.4 11 Norte 24 Norte 0 -- -- 71
2020-02-11 13:00:00 17.8 15 Norte 23 Norte 0 -- -- 67
2020-02-11 12:00:00 17.6 16 Norte 26 Norte 0 -- -- 66
2020-02-11 11:00:00 18.4 8 Noroeste 17 Norte 0 -- -- 61
2020-02-11 10:00:00 16.4 10 Oeste 15 Oeste 0 -- -- 73
2020-02-11 09:00:00 14.3 9 Oeste 17 Sudoeste 0 -- -- 80
2020-02-11 08:00:00 13.6 9 Sudoeste 16 Sudoeste 0 -- -- 82
2020-02-11 07:00:00 13.9 9 Oeste 14 Sudoeste 0 -- -- 77
2020-02-11 06:00:00 12.9 7 Sudoeste 16 Sudoeste 0 -- -- 87
2020-02-11 05:00:00 12.4 9 Sudoeste 18 Sur 0 -- -- 92
2020-02-11 04:00:00 12.7 14 Sudoeste 21 Sur 0 -- -- 92
2020-02-11 03:00:00 12.4 10 Sudoeste 14 Sur 0 -- -- 91
2020-02-11 02:00:00 12.8 11 Sur 16 Sur 0 -- -- 91
2020-02-11 01:00:00 12.8 7 Sur 15 Sur 0 -- -- 91
2020-02-11 00:00:00 12.8 8 Sur 17 Sudeste 0 -- -- 88
2020-02-10 23:00:00 13.3 11 Sudoeste 24 Sudoeste 0 -- -- 84
2020-02-10 22:00:00 12.9 7 Sur 21 Sudoeste 0 -- -- 89
2020-02-10 21:00:00 13.7 12 Sudoeste 33 Sudoeste 0 -- -- 88
2020-02-10 20:00:00 14.2 26 Sudoeste 35 Sudoeste 0 -- -- 86
2020-02-10 19:00:00 14.1 15 Sudoeste 26 Sudoeste 0 -- -- 86
2020-02-10 18:00:00 15.1 12 Sur 27 Sudoeste 0 -- -- 82
2020-02-10 17:00:00 17 16 Sudoeste 29 Sudoeste 0 -- -- 72
2020-02-10 16:00:00 17.6 19 Sudoeste 30 Sudoeste 0 -- -- 69
2020-02-10 15:00:00 18.2 19 Sudoeste 32 Sudoeste 0 -- -- 65
2020-02-10 14:00:00 17.4 20 Sudoeste 33 Sudoeste 0 -- -- 74
2020-02-10 13:00:00 16.5 23 Sudoeste 35 Sudoeste 0 -- -- 75
2020-02-10 12:00:00 15.5 26 Sudoeste 36 Sudoeste 0 -- -- 78
2020-02-10 11:00:00 14.5 21 Sudoeste 32 Sudoeste 0 -- -- 86
2020-02-10 10:00:00 14.5 19 Sudoeste 36 Sudoeste 0 -- -- 85
2020-02-10 09:00:00 13.5 21 Sudoeste 32 Sur 0 -- -- 90
2020-02-10 08:00:00 12.9 20 Sudoeste 31 Sudoeste 0 -- -- 91
2020-02-10 07:00:00 13.1 20 Sudoeste 40 Sudoeste 0 -- -- 90
2020-02-10 06:00:00 13.3 25 Sudoeste 39 Sudoeste 0 -- -- 90
2020-02-10 05:00:00 13 24 Sudoeste 38 Sudoeste 0 -- -- 91
2020-02-10 04:00:00 12.8 22 Sudoeste 40 Sudoeste 0 -- -- 91
2020-02-10 03:00:00 12.6 19 Sudoeste 31 Sudoeste 0 -- -- 91
2020-02-10 02:00:00 12.8 20 Sudoeste 32 Sudoeste 0 -- -- 91
2020-02-10 01:00:00 12.9 16 Sudoeste 39 Sudoeste 0 -- -- 90
2020-02-10 00:00:00 13.7 22 Sudoeste 42 Sudoeste 0 -- -- 91
2020-02-09 23:00:00 13.3 26 Sudoeste 37 Sudoeste 0 -- -- 93
2020-02-09 22:00:00 13 17 Sudoeste 27 Sudoeste 0 -- -- 92
2020-02-09 21:00:00 13.4 21 Sudoeste 34 Sudoeste 0 -- -- 91
2020-02-09 20:00:00 13.4 23 Sudoeste 37 Sudoeste 0 -- -- 91
2020-02-09 19:00:00 12.9 17 Sudoeste 24 Sudoeste 0 -- -- 90
2020-02-09 18:00:00 13.2 9 Sur 21 Sur 0 -- -- 85
2020-02-09 17:00:00 14.5 14 Sur 23 Sur 0 -- -- 76
2020-02-09 16:00:00 15.2 14 Sur 24 Sudoeste 0 -- -- 70
2020-02-09 15:00:00 15.4 16 Sudoeste 24 Sur 0 -- -- 66
2020-02-09 14:00:00 15.6 17 Sudoeste 26 Sur 0 -- -- 65
2020-02-09 13:00:00 14.9 12 Sudoeste 22 Sudoeste 0 -- -- 69
2020-02-09 12:00:00 14.7 12 Sudoeste 20 Sudoeste 0 -- -- 73
2020-02-09 11:00:00 13.8 13 Sudoeste 20 Sudoeste 0 -- -- 75
2020-02-09 10:00:00 13.4 6 Sur 13 Sur 0 -- -- 79
2020-02-09 09:00:00 10.7 6 Sur 9 Sur 0 -- -- 86
2020-02-09 08:00:00 9.6 4 Sur 6 Sudoeste 0 -- -- 87
2020-02-09 07:00:00 10 2 Sudoeste 5 Sudoeste 0 -- -- 87
2020-02-09 06:00:00 10.3 3 Sudoeste 5 Sudoeste 0 -- -- 86
2020-02-09 05:00:00 10.7 0 Calma 5 Sur 0 -- -- 86
2020-02-09 04:00:00 10.7 4 Sudoeste 5 Sudoeste 0 -- -- 86
2020-02-09 03:00:00 10.7 2 Sur 5 Sur 0 -- -- 86
2020-02-09 02:00:00 10.3 3 Sur 5 Sur 0 -- -- 89
2020-02-09 01:00:00 10.5 2 Sudoeste 5 Sudoeste 0 -- -- 89
2020-02-09 00:00:00 10.2 3 Sudoeste 6 Oeste 0 -- -- 91
2020-02-08 23:00:00 9.8 4 Sudoeste 8 Oeste 0 -- -- 90
2020-02-08 22:00:00 10.3 6 Oeste 9 Sudoeste 0 -- -- 89
2020-02-08 21:00:00 10.6 3 Sur 5 Sudoeste 0 -- -- 87
2020-02-08 20:00:00 10.3 2 Sudoeste 10 Noroeste 0 -- -- 84
2020-02-08 19:00:00 12.1 5 Noroeste 17 Noroeste 0 -- -- 80
2020-02-08 18:00:00 12 9 Oeste 21 Noroeste 0 -- -- 81
2020-02-08 17:00:00 13.6 15 Oeste 26 Oeste 0 -- -- 69
2020-02-08 16:00:00 13.4 18 Oeste 25 Oeste 0 -- -- 63
2020-02-08 15:00:00 14.1 16 Oeste 27 Oeste 0 -- -- 59
2020-02-08 14:00:00 13.8 9 Noroeste 19 Oeste 0 -- -- 65
2020-02-08 13:00:00 14 16 Oeste 24 Oeste 0 -- -- 68
2020-02-08 12:00:00 13.2 11 Oeste 21 Oeste 0 -- -- 77
2020-02-08 11:00:00 13.7 15 Oeste 20 Oeste 0 -- -- 70
2020-02-08 10:00:00 13.3 3 Sudoeste 5 Oeste 0 -- -- 87
2020-02-08 09:00:00 9.7 2 Sudoeste 3 Sudoeste 0 -- -- 89
2020-02-08 08:00:00 8.8 3 Sudoeste 4 Sudoeste 0 -- -- 92
2020-02-08 07:00:00 9.5 0 Calma 2 Oeste 0 -- -- 92
2020-02-08 06:00:00 9 0 Calma 3 Oeste 0 -- -- 93
2020-02-08 05:00:00 8.7 2 Sudoeste 5 Oeste 0 -- -- 92
2020-02-08 04:00:00 8.9 3 Oeste 4 Oeste 0 -- -- 92
2020-02-08 03:00:00 9.1 0 Calma 6 Oeste 0 -- -- 90
2020-02-08 02:00:00 8.6 4 Oeste 6 Oeste 0 -- -- 89
2020-02-08 01:00:00 9.3 2 Oeste 5 Oeste 0 -- -- 87
2020-02-08 00:00:00 9.2 3 Sudoeste 5 Sudoeste 0 -- -- 86
2020-02-07 23:00:00 11.4 3 Sudeste 5 Sudeste 0 -- -- 81
2020-02-07 22:00:00 11.4 3 Sudeste 9 Sudeste 0 -- -- 80
2020-02-07 21:00:00 10.3 0 Calma 7 Este 0 -- -- 83
2020-02-07 20:00:00 10.5 0 Calma 13 Este 0 -- -- 79
2020-02-07 19:00:00 11.4 10 Este 13 Este 0 -- -- 75
2020-02-07 18:00:00 11.8 8 Este 16 Este 0 -- -- 72
2020-02-07 17:00:00 13 9 Este 22 Este 0 -- -- 68
2020-02-07 16:00:00 13.8 13 Este 20 Sudeste 0 -- -- 65
2020-02-07 15:00:00 14.6 12 Este 26 Este 0 -- -- 61
2020-02-07 14:00:00 15.3 14 Este 21 Este 0 -- -- 60
2020-02-07 13:00:00 15.6 10 Sudeste 22 Este 0 -- -- 58
2020-02-07 12:00:00 15 9 Sudeste 19 Sudeste 0 -- -- 61
2020-02-07 11:00:00 13.1 16 Sudeste 26 Sudeste 0 -- -- 67
2020-02-07 10:00:00 13 8 Sudeste 16 Sudeste 0 -- -- 69
2020-02-07 09:00:00 10.4 7 Sudeste 10 Sudeste 0 -- -- 73
2020-02-07 08:00:00 8.9 6 Sudeste 13 Sudeste 0 -- -- 75
2020-02-07 07:00:00 8.9 8 Sur 12 Sur 0 -- -- 75
2020-02-07 06:00:00 7.3 3 Sudeste 10 Sudeste 0 -- -- 80
2020-02-07 05:00:00 8.8 9 Sur 11 Sur 0 -- -- 71
2020-02-07 04:00:00 8 4 Sudeste 11 Sudeste 0 -- -- 78
2020-02-07 03:00:00 9 8 Sudeste 12 Sudeste 0 -- -- 77
2020-02-07 02:00:00 8.8 6 Sur 11 Sur 0 -- -- 78
2020-02-07 01:00:00 8.9 7 Sur 13 Sur 0 -- -- 77
2020-02-07 00:00:00 9.4 10 Sudeste 13 Sur 0 -- -- 78
2020-02-06 23:00:00 9.5 11 Sudeste 16 Sudeste 0 -- -- 77
2020-02-06 22:00:00 9.3 9 Sur 15 Sur 0 -- -- 78
2020-02-06 21:00:00 9.4 9 Sur 12 Sudeste 0 -- -- 78
2020-02-06 20:00:00 9.2 7 Sudeste 10 Sudeste 0 -- -- 77
2020-02-06 19:00:00 9.5 3 Sudeste 6 Sudeste 0 -- -- 75
2020-02-06 18:00:00 11.5 5 Sudoeste 16 Nordeste 0 -- -- 70
2020-02-06 17:00:00 12.7 10 Nordeste 17 Este 0 -- -- 67
2020-02-06 16:00:00 13 9 Norte 17 Norte 0 -- -- 64
2020-02-06 15:00:00 14 8 Norte 15 Nordeste 0 -- -- 62
2020-02-06 14:00:00 13.8 8 Norte 18 Norte 0 -- -- 61
2020-02-06 13:00:00 14.2 10 Norte 17 Norte 0 -- -- 59
2020-02-06 12:00:00 14.5 4 Sudoeste 12 Sudeste 0 -- -- 52
2020-02-06 11:00:00 14 5 Este 11 Sudeste 0 -- -- 59
2020-02-06 10:00:00 12.4 2 Nordeste 4 Este 0 -- -- 68
2020-02-06 09:00:00 9.6 2 Sudeste 4 Oeste 0 -- -- 78
2020-02-06 08:00:00 7.3 0 Calma 7 Nordeste 0 -- -- 81
2020-02-06 07:00:00 7.4 3 Nordeste 6 Nordeste 0 -- -- 78
2020-02-06 06:00:00 7.9 3 Nordeste 6 Noroeste 0 -- -- 76
2020-02-06 05:00:00 8.3 3 Norte 6 Norte 0 -- -- 75
2020-02-06 04:00:00 9.5 6 Norte 18 Norte 0 -- -- 73
2020-02-06 03:00:00 10.4 11 Norte 24 Norte 0 -- -- 70
2020-02-06 02:00:00 10.9 14 Norte 32 Norte 0 -- -- 66
2020-02-06 01:00:00 11.3 18 Norte 30 Norte 0 -- -- 64
2020-02-06 00:00:00 11.1 16 Norte 36 Norte 0 -- -- 68
2020-02-05 23:00:00 11 17 Norte 34 Norte 0 -- -- 71
2020-02-05 22:00:00 11 19 Norte 30 Norte 0 -- -- 69
2020-02-05 21:00:00 10.2 13 Norte 20 Noroeste 0 -- -- 71
2020-02-05 20:00:00 10.3 9 Norte 28 Norte 0 -- -- 71
2020-02-05 19:00:00 10.8 14 Noroeste 32 Noroeste 0 -- -- 67
2020-02-05 18:00:00 11.1 16 Noroeste 34 Noroeste 0 -- -- 70
2020-02-05 17:00:00 11.7 24 Norte 47 Noroeste 0 -- -- 67
2020-02-05 16:00:00 12.1 32 Norte 54 Norte 0 -- -- 59
2020-02-05 15:00:00 11.9 27 Norte 50 Norte 0 -- -- 59
2020-02-05 14:00:00 12.1 28 Norte 48 Norte 0 -- -- 59
2020-02-05 13:00:00 12.1 30 Norte 48 Norte 0 -- -- 58
2020-02-05 12:00:00 11.8 31 Norte 53 Norte 0 -- -- 59
2020-02-05 11:00:00 11.6 36 Norte 62 Norte 0 -- -- 59
2020-02-05 10:00:00 11.5 30 Norte 62 Norte 0 -- -- 56
2020-02-05 09:00:00 10.9 31 Norte 63 Norte 0 -- -- 61
2020-02-05 08:00:00 10.7 39 Norte 67 Norte 0 -- -- 59
2020-02-05 07:00:00 10.6 36 Norte 64 Norte 0 -- -- 54
2020-02-05 06:00:00 10.5 37 Norte 71 Norte 0 -- -- 57
2020-02-05 05:00:00 10.4 36 Norte 71 Norte 0 -- -- 57
2020-02-05 04:00:00 10.8 48 Norte 77 Norte 0 -- -- 57
2020-02-05 03:00:00 11 44 Norte 72 Norte 0 -- -- 59
2020-02-05 02:00:00 11.3 40 Norte 82 Norte 0 -- -- 58
2020-02-05 01:00:00 11.4 40 Norte 73 Norte 0 -- -- 57
2020-02-05 00:00:00 11.9 43 Norte 81 Norte 0 -- -- 55
2020-02-04 23:00:00 12.3 48 Norte 81 Norte 0 -- -- 51
2020-02-04 22:00:00 12.4 39 Norte 65 Norte 0 -- -- 54
2020-02-04 21:00:00 12.6 41 Norte 67 Nordeste 0 -- -- 59
2020-02-04 20:00:00 12.8 39 Norte 68 Norte 0 -- -- 59
2020-02-04 19:00:00 12.8 30 Norte 54 Norte 0 -- -- 63
2020-02-04 18:00:00 13 28 Norte 46 Norte 0 -- -- 72
2020-02-04 12:00:00 18.2 27 Oeste 51 Oeste 0 -- -- 57
2020-02-04 11:00:00 19.3 13 Oeste 23 Oeste 0 -- -- 55
2020-02-04 10:00:00 17.5 9 Oeste 17 Noroeste 0 -- -- 63
2020-02-04 09:00:00 16 9 Sudoeste 17 Oeste 0 -- -- 70
2020-02-04 08:00:00 15 6 Norte 25 Oeste 0 -- -- 72
2020-02-04 07:00:00 16.3 16 Oeste 26 Oeste 0 -- -- 64
2020-02-04 06:00:00 14.5 15 Sudoeste 21 Sudoeste 0 -- -- 73
2020-02-04 05:00:00 15.4 18 Sudoeste 33 Sudoeste 0 -- -- 68
2020-02-04 04:00:00 15 16 Sudoeste 31 Sudoeste 0 -- -- 72
2020-02-04 03:00:00 15.2 21 Sudoeste 33 Sudoeste 0 -- -- 74
2020-02-04 02:00:00 15.7 17 Sudoeste 27 Sudoeste 0 -- -- 72
2020-02-04 01:00:00 15.7 17 Sudoeste 24 Oeste 0 -- -- 76
2020-02-04 00:00:00 15.7 14 Sudoeste 21 Sudoeste 0 -- -- 72
2020-02-03 23:00:00 14.5 9 Sudoeste 15 Sur 0 -- -- 68
2020-02-03 22:00:00 15 9 Sur 13 Sur 0 -- -- 64
2020-02-03 21:00:00 15.8 6 Sur 10 Sur 0 -- -- 62
2020-02-03 20:00:00 15.9 9 Sudoeste 17 Sudoeste 0 -- -- 63
2020-02-03 19:00:00 15.9 9 Sudoeste 19 Sudoeste 0 -- -- 69
2020-02-03 18:00:00 17.4 9 Sudoeste 14 Sudoeste 0 -- -- 65
2020-02-03 17:00:00 19.6 7 Oeste 21 Oeste 0 -- -- 61
2020-02-03 16:00:00 21 10 Oeste 14 Oeste 0 -- -- 58
2020-02-03 15:00:00 21.3 7 Oeste 14 Oeste 0 -- -- 60
2020-02-03 14:00:00 21 4 Norte 12 Norte 0 -- -- 60
2020-02-03 13:00:00 20.7 8 Norte 22 Noroeste 0 -- -- 59
2020-02-03 12:00:00 21.2 7 Oeste 16 Oeste 0 -- -- 57
2020-02-03 11:00:00 20.2 10 Oeste 19 Oeste 0 -- -- 60
2020-02-03 10:00:00 18.9 5 Sudoeste 19 Oeste 0 -- -- 60
2020-02-03 09:00:00 16.7 7 Sudoeste 20 Sudoeste 0 -- -- 66
2020-02-03 08:00:00 15.3 7 Oeste 26 Oeste 0 -- -- 70
2020-02-03 07:00:00 14.7 5 Sudoeste 17 Sudoeste 0 -- -- 71
2020-02-03 06:00:00 15.1 13 Sudoeste 20 Oeste 0 -- -- 70
2020-02-03 05:00:00 14.6 9 Sudoeste 19 Oeste 0 -- -- 73
2020-02-03 04:00:00 15.2 14 Sudoeste 20 Sudoeste 0 -- -- 71
2020-02-03 03:00:00 15.5 14 Oeste 28 Oeste 0 -- -- 70
2020-02-03 02:00:00 14.6 12 Sudoeste 18 Oeste 0 -- -- 76
2020-02-03 01:00:00 15 6 Sudoeste 16 Sudoeste 0 -- -- 75
2020-02-03 00:00:00 15.3 6 Sudoeste 13 Sudoeste 0 -- -- 74
2020-02-02 23:00:00 14.4 7 Sur 12 Sudeste 0 -- -- 81
2020-02-02 22:00:00 15.5 3 Sudeste 17 Sudoeste 0 -- -- 73
2020-02-02 21:00:00 15.5 10 Sudoeste 15 Sudoeste 0 -- -- 69
2020-02-02 20:00:00 15.7 4 Sudoeste 10 Oeste 0 -- -- 67
2020-02-02 19:00:00 15.3 6 Oeste 14 Oeste 0 -- -- 73
2020-02-02 18:00:00 16.2 12 Oeste 19 Oeste 0 -- -- 73
2020-02-02 17:00:00 18.6 13 Oeste 22 Sudoeste 0 -- -- 70
2020-02-02 16:00:00 20.1 12 Sudoeste 24 Sudoeste 0 -- -- 63
2020-02-02 15:00:00 20 17 Sudoeste 26 Sudoeste 0 -- -- 59
2020-02-02 14:00:00 19.3 21 Sudoeste 29 Sudoeste 0 -- -- 59
2020-02-02 13:00:00 19.1 19 Sudoeste 33 Sudoeste 0 -- -- 58
2020-02-02 12:00:00 18.8 24 Sudoeste 40 Sudoeste 0 -- -- 55
2020-02-02 11:00:00 18.2 22 Sudoeste 36 Sudoeste 0 -- -- 57
2020-02-02 10:00:00 17.2 22 Sudoeste 32 Sudoeste 0 -- -- 63
2020-02-02 09:00:00 15.7 20 Sudoeste 29 Sudoeste 0 -- -- 70
2020-02-02 08:00:00 14.9 18 Sudoeste 25 Sudoeste 0 -- -- 72
2020-02-02 07:00:00 14.5 15 Sudoeste 27 Sudoeste 0 -- -- 74
2020-02-02 06:00:00 14.1 15 Sudoeste 26 Sudoeste 0 -- -- 76
2020-02-02 05:00:00 14.3 16 Sudoeste 25 Sudoeste 0 -- -- 74
2020-02-02 04:00:00 12.4 9 Sudoeste 13 Sur 0 -- -- 79
2020-02-02 03:00:00 13.2 8 Sudoeste 15 Sudoeste 0 -- -- 77
2020-02-02 02:00:00 13.3 10 Sudoeste 15 Sudoeste 0 -- -- 78
2020-02-02 01:00:00 12.9 6 Sudoeste 10 Sudoeste 0 -- -- 80
2020-02-02 00:00:00 12.5 5 Sudoeste 10 Sudoeste 0 -- -- 83
2020-02-01 23:00:00 12.6 8 Sudoeste 11 Sudoeste 0 -- -- 85
2020-02-01 22:00:00 12.2 4 Sudoeste 9 Sudoeste 0 -- -- 88
2020-02-01 21:00:00 12.1 5 Sur 6 Sudeste 0 -- -- 86
2020-02-01 20:00:00 12.7 3 Sur 4 Oeste 0 -- -- 86
2020-02-01 19:00:00 12.6 0 Calma 6 Sur 0 -- -- 86
2020-02-01 18:00:00 14.4 2 Noroeste 18 Noroeste 0 -- -- 80
2020-02-01 17:00:00 16.4 11 Noroeste 22 Noroeste 0 -- -- 70
2020-02-01 16:00:00 16.6 10 Noroeste 30 Noroeste 0 -- -- 68
2020-02-01 15:00:00 17.8 13 Noroeste 21 Oeste 0 -- -- 66
2020-02-01 14:00:00 17.6 6 Sudoeste 24 Sudoeste 0 -- -- 73
2020-02-01 13:00:00 15.7 16 Sudoeste 29 Sur 0 -- -- 83
2020-02-01 12:00:00 16.4 18 Sudoeste 32 Sur 0 -- -- 80
2020-02-01 11:00:00 15 19 Sudoeste 28 Sudoeste 0 -- -- 92
2020-02-01 10:00:00 13.2 15 Sur 21 Sur 0 -- -- 96
2020-02-01 09:00:00 11.7 12 Sur 18 Sur 0 -- -- 96
2020-02-01 08:00:00 10.8 12 Sur 19 Sur 0 -- -- 95
2020-02-01 07:00:00 10.9 9 Sudoeste 11 Sudoeste 0 -- -- 94
2020-02-01 06:00:00 11.1 7 Sur 10 Sur 0.2 -- -- 93
2020-02-01 05:00:00 11.5 4 Sudoeste 8 Sudoeste 0 -- -- 95
2020-02-01 04:00:00 11.4 4 Sudoeste 10 Oeste 0 -- -- 95
2020-02-01 03:00:00 11.8 4 Sudoeste 14 Sudoeste 0 -- -- 94
2020-02-01 02:00:00 11.4 8 Oeste 12 Oeste 0 -- -- 93
2020-02-01 01:00:00 11.7 5 Sudoeste 10 Sudoeste 0 -- -- 90
2020-02-01 00:00:00 11.1 6 Sudoeste 10 Sudoeste 0 -- -- 92
2020-01-31 23:00:00 11.1 8 Oeste 10 Oeste 0 -- -- 93
2020-01-31 22:00:00 10.5 6 Sur 8 Sur 0 -- -- 94
2020-01-31 21:00:00 10.5 2 Sur 2 Sur 0 -- -- 94
2020-01-31 20:00:00 11.5 0 Calma 2 Sudeste 0 -- -- 94
2020-01-31 19:00:00 12.2 3 Nordeste 8 Nordeste 0 -- -- 92
2020-01-31 18:00:00 13 5 Norte 15 Norte 0 -- -- 88
2020-01-31 17:00:00 14.4 9 Norte 17 Norte 0 -- -- 85
2020-01-31 16:00:00 15.9 6 Noroeste 19 Noroeste 0 -- -- 77
2020-01-31 15:00:00 17.3 9 Noroeste 19 Noroeste 0 -- -- 70
2020-01-31 14:00:00 15.8 12 Noroeste 21 Oeste 0 -- -- 72
2020-01-31 13:00:00 16.4 15 Oeste 22 Sudoeste 0 -- -- 71
2020-01-31 12:00:00 17.1 8 Nordeste 13 Norte 0 -- -- 75
2020-01-31 11:00:00 16.8 3 Nordeste 8 Nordeste 0 -- -- 75
2020-01-31 10:00:00 14.8 3 Oeste 8 Sudoeste 0 -- -- 84
2020-01-31 09:00:00 13.4 4 Sudoeste 9 Sudoeste 0 -- -- 92
2020-01-31 08:00:00 11.8 0 Calma 5 Sudoeste 0 -- -- 93
2020-01-31 07:00:00 11.7 2 Sur 8 Sudoeste 0 -- -- 94
2020-01-31 06:00:00 11.8 2 Sur 5 Sur 0 -- -- 94
2020-01-31 05:00:00 11.8 3 Sur 8 Sur 0 -- -- 94
2020-01-31 04:00:00 11.9 6 Sur 9 Sudoeste 0 -- -- 94
2020-01-31 03:00:00 12.3 7 Sudoeste 13 Sur 0 -- -- 93
2020-01-31 02:00:00 12.1 10 Sur 13 Sudoeste 0 -- -- 92
2020-01-31 01:00:00 12.4 3 Sudeste 12 Sur 0 -- -- 89
2020-01-31 00:00:00 12.4 8 Sudeste 13 Sudeste 0 -- -- 89
2020-01-30 23:00:00 13 7 Sur 24 Sudoeste 0 -- -- 89
2020-01-30 22:00:00 12.7 13 Sur 18 Sur 0 -- -- 92
2020-01-30 21:00:00 13.6 11 Sur 15 Sur 0 -- -- 91
2020-01-30 20:00:00 13.7 13 Sur 17 Sudoeste 0 -- -- 88
2020-01-30 19:00:00 13.2 3 Sur 14 Sur 0 -- -- 89
2020-01-30 18:00:00 14.6 9 Sur 17 Sudoeste 0 -- -- 83
2020-01-30 17:00:00 17.1 8 Oeste 18 Oeste 0 -- -- 67
2020-01-30 16:00:00 16.8 11 Oeste 22 Oeste 0 -- -- 66
2020-01-30 15:00:00 17.4 13 Sudoeste 22 Sudoeste 0 -- -- 72
2020-01-30 14:00:00 17.5 11 Sur 17 Sudoeste 0 -- -- 73
2020-01-30 13:00:00 16.3 10 Sudoeste 18 Oeste 0 -- -- 76
2020-01-30 12:00:00 14.4 14 Sudoeste 26 Sudoeste 0 -- -- 91
2020-01-30 11:00:00 13.9 18 Sudoeste 29 Sudoeste 0 -- -- 94
2020-01-30 10:00:00 13.4 19 Sudoeste 29 Sudoeste 0 -- -- 96
2020-01-30 09:00:00 12.6 19 Sur 25 Sudoeste 0 -- -- 96
2020-01-30 08:00:00 11.8 10 Sur 14 Sur 0 -- -- 96
2020-01-30 07:00:00 11.8 11 Sur 15 Sur 0 -- -- 96
2020-01-30 06:00:00 11.6 7 Sur 11 Sur 0 -- -- 96
2020-01-30 05:00:00 12 9 Sur 17 Sur 0 -- -- 96
2020-01-30 04:00:00 12.4 13 Sur 17 Sudoeste 0 -- -- 93
2020-01-30 03:00:00 12.3 8 Sur 11 Sudoeste 0 -- -- 91
2020-01-30 02:00:00 12.2 8 Sudoeste 12 Sur 0 -- -- 96
2020-01-30 01:00:00 12.4 7 Sudoeste 15 Sudoeste 0 -- -- 96
2020-01-30 00:00:00 12.9 12 Sudoeste 17 Sur 0 -- -- 96
2020-01-29 23:00:00 12.5 9 Sudoeste 17 Sur 0 -- -- 94
2020-01-29 22:00:00 12.9 10 Sur 15 Sudoeste 0 -- -- 92
2020-01-29 21:00:00 12.2 9 Sur 15 Sudoeste 0 -- -- 91
2020-01-29 20:00:00 12.6 8 Sur 10 Sur 0 -- -- 89
2020-01-29 19:00:00 13.2 3 Sur 9 Oeste 0 -- -- 86
2020-01-29 18:00:00 14.6 6 Sudoeste 9 Sudoeste 0 -- -- 79
2020-01-29 17:00:00 16.5 4 Sur 9 Sudeste 0 -- -- 78
2020-01-29 16:00:00 16.1 5 Sur 7 Sur 0 -- -- 79
2020-01-29 15:00:00 15.9 3 Este 10 Este 0 -- -- 80
2020-01-29 14:00:00 16.2 6 Norte 9 Norte 0 -- -- 77
2020-01-29 13:00:00 16.3 8 Nordeste 17 Sudoeste 0 -- -- 78
2020-01-29 12:00:00 17.5 4 Sur 10 Sudeste 0 -- -- 73
2020-01-29 11:00:00 15.8 2 Este 9 Este 0 -- -- 77
2020-01-29 10:00:00 15.5 6 Este 11 Este 0 -- -- 87
2020-01-29 09:00:00 13.1 5 Norte 10 Norte 0 -- -- 86
2020-01-29 08:00:00 12.8 5 Norte 19 Oeste 0 -- -- 88
2020-01-29 07:00:00 13.3 13 Oeste 23 Oeste 0 -- -- 89
2020-01-29 06:00:00 12.7 5 Oeste 14 Noroeste 0 -- -- 88
2020-01-29 05:00:00 13.4 11 Oeste 20 Noroeste 0 -- -- 85
2020-01-29 04:00:00 12.8 13 Sudoeste 21 Sudoeste 0 -- -- 86
2020-01-29 03:00:00 13.2 11 Sudoeste 26 Oeste 0 -- -- 78
2020-01-29 02:00:00 12.7 14 Sudoeste 26 Sudoeste 0 -- -- 82
2020-01-29 01:00:00 12.7 18 Sudoeste 26 Sudoeste 0 -- -- 87
2020-01-29 00:00:00 13 19 Sudoeste 26 Sudoeste 0 -- -- 85
2020-01-28 23:00:00 12.5 15 Sudoeste 21 Sudoeste 0 -- -- 88
2020-01-28 22:00:00 13.3 15 Sudoeste 24 Sudoeste 0 -- -- 88
2020-01-28 21:00:00 13.5 14 Sudoeste 19 Sudoeste 0 -- -- 83
2020-01-28 20:00:00 12.8 12 Sudoeste 21 Sudoeste 0 -- -- 75
2020-01-28 19:00:00 13.5 13 Sudoeste 24 Oeste 0 -- -- 73
2020-01-28 18:00:00 14.6 14 Oeste 32 Oeste 0 -- -- 71
2020-01-28 17:00:00 15.9 21 Oeste 34 Oeste 0 -- -- 66
2020-01-28 16:00:00 17.2 16 Oeste 33 Oeste 0 -- -- 64
2020-01-28 15:00:00 17.6 22 Oeste 43 Noroeste 0 -- -- 59
2020-01-28 14:00:00 17.3 24 Oeste 40 Oeste 0 -- -- 58
2020-01-28 13:00:00 16.8 30 Oeste 45 Oeste 0 -- -- 63
2020-01-28 12:00:00 16.2 24 Oeste 37 Sudoeste 0 -- -- 64
2020-01-28 11:00:00 14.9 21 Sudoeste 33 Sudoeste 0 -- -- 75
2020-01-28 10:00:00 13.4 23 Sudoeste 32 Sudoeste 0 -- -- 83
2020-01-28 09:00:00 12.9 20 Sudoeste 32 Sudoeste 0 -- -- 85
2020-01-28 08:00:00 12.5 20 Sudoeste 28 Sudoeste 0 -- -- 85
2020-01-28 07:00:00 11.4 8 Sudoeste 21 Sudoeste 0 -- -- 88
2020-01-28 06:00:00 11.9 13 Sudoeste 27 Sudoeste 0 -- -- 85
2020-01-28 05:00:00 11.7 20 Sudoeste 30 Sudoeste 0 -- -- 84
2020-01-28 04:00:00 12 18 Sudoeste 28 Sudoeste 0 -- -- 82
2020-01-28 03:00:00 12.2 19 Sudoeste 33 Sudoeste 0 -- -- 81
2020-01-28 02:00:00 12.2 24 Sudoeste 38 Sudoeste 0 -- -- 82
2020-01-28 01:00:00 12.2 26 Sudoeste 47 Sudoeste 0 -- -- 82
2020-01-28 00:00:00 12.3 34 Sudoeste 50 Sudoeste 0 -- -- 80
2020-01-27 23:00:00 12.3 28 Sudoeste 41 Sudoeste 0 -- -- 77
2020-01-27 22:00:00 12.5 30 Sudoeste 44 Sudoeste 0 -- -- 74
2020-01-27 21:00:00 12.6 27 Sudoeste 41 Sudoeste 0 -- -- 73
2020-01-27 20:00:00 12.5 21 Sudoeste 38 Sudoeste 0 -- -- 76
2020-01-27 19:00:00 12.7 28 Sudoeste 42 Sudoeste 0 -- -- 73
2020-01-27 18:00:00 13.2 27 Sudoeste 39 Sudoeste 0 -- -- 80
2020-01-27 17:00:00 13.8 21 Sudoeste 36 Sudoeste 0 -- -- 79
2020-01-27 16:00:00 14 22 Sudoeste 34 Sudoeste 0 -- -- 78
2020-01-27 15:00:00 13.8 26 Sudoeste 36 Sudoeste 0 -- -- 77
2020-01-27 14:00:00 14.1 21 Sudoeste 35 Sudoeste 0 -- -- 71
2020-01-27 13:00:00 14.1 22 Sudoeste 31 Sudoeste 0 -- -- 64
2020-01-27 12:00:00 13.9 18 Sudoeste 28 Sur 0 -- -- 72
2020-01-27 11:00:00 13 17 Sudoeste 27 Sudoeste 0 -- -- 76
2020-01-27 10:00:00 12.2 10 Oeste 14 Sudoeste 0 -- -- 83
2020-01-27 09:00:00 10.5 6 Sudoeste 10 Sudoeste 0 -- -- 90
2020-01-27 08:00:00 9.1 7 Sudoeste 10 Sudoeste 0 -- -- 93
2020-01-27 07:00:00 9.3 5 Sudoeste 6 Oeste 0 -- -- 92
2020-01-27 06:00:00 9.5 4 Sudoeste 6 Sudoeste 0 -- -- 92
2020-01-27 05:00:00 9.7 4 Sudoeste 9 Sudoeste 0 -- -- 90
2020-01-27 04:00:00 9.9 3 Sudoeste 6 Sudoeste 0 -- -- 91
2020-01-27 03:00:00 10.2 6 Sudoeste 6 Sudoeste 0 -- -- 88
2020-01-27 02:00:00 9.9 3 Sudoeste 8 Oeste 0 -- -- 90
2020-01-27 01:00:00 9.7 6 Oeste 11 Oeste 0 -- -- 91
2020-01-27 00:00:00 9.8 7 Oeste 9 Oeste 0 -- -- 92
2020-01-26 23:00:00 10.1 4 Oeste 7 Oeste 0 -- -- 91
2020-01-26 22:00:00 10.6 5 Oeste 9 Noroeste 0 -- -- 90
2020-01-26 21:00:00 11.7 6 Noroeste 17 Norte 0 -- -- 87
2020-01-26 20:00:00 12.1 8 Noroeste 20 Noroeste 0 -- -- 87
2020-01-26 19:00:00 12.5 10 Noroeste 18 Noroeste 0 -- -- 86
2020-01-26 18:00:00 12.4 9 Noroeste 22 Noroeste 0 -- -- 86
2020-01-26 17:00:00 13.4 9 Noroeste 28 Noroeste 0 -- -- 84
2020-01-26 16:00:00 13.7 15 Noroeste 28 Noroeste 0 -- -- 83
2020-01-26 15:00:00 14.3 14 Noroeste 26 Norte 0 -- -- 82
2020-01-26 14:00:00 15.9 13 Oeste 25 Oeste 0 -- -- 76
2020-01-26 13:00:00 15.7 13 Oeste 23 Noroeste 0 -- -- 75
2020-01-26 12:00:00 14.8 14 Oeste 25 Oeste 0 -- -- 78
2020-01-26 11:00:00 14.9 9 Oeste 15 Oeste 0 -- -- 84
2020-01-26 10:00:00 13.9 0 Calma 4 Sudoeste 0 -- -- 93
2020-01-26 09:00:00 12.4 0 Calma 10 Sudoeste 0 -- -- 96
2020-01-26 08:00:00 11.5 9 Sudoeste 14 Sur 0 -- -- 94
2020-01-26 07:00:00 11.3 8 Sudoeste 13 Sur 0 -- -- 96
2020-01-26 06:00:00 11.5 8 Sudoeste 10 Sur 0 -- -- 96
2020-01-26 05:00:00 11.9 4 Sur 9 Sur 0 -- -- 95
2020-01-26 04:00:00 12.5 10 Sur 22 Sur 0 -- -- 94
2020-01-26 03:00:00 12.5 19 Sudoeste 32 Sudoeste 0 -- -- 95
2020-01-26 02:00:00 12.5 19 Sudeste 30 Sudeste 0 -- -- 95
2020-01-26 01:00:00 12.5 14 Sudeste 24 Sudeste 0 -- -- 95
2020-01-26 00:00:00 12.6 14 Sudeste 22 Sudeste 0 -- -- 94
2020-01-25 23:00:00 12.5 15 Sudeste 25 Sudeste 0 -- -- 94
2020-01-25 22:00:00 12.4 16 Sudeste 23 Sudeste 0 -- -- 94
2020-01-25 21:00:00 12.6 16 Sudeste 27 Sudeste 0 -- -- 93
2020-01-25 20:00:00 12.6 16 Sudeste 23 Sudeste 0 -- -- 93
2020-01-25 19:00:00 12.7 12 Sudeste 19 Sudeste 0 -- -- 91
2020-01-25 18:00:00 13.2 13 Sudeste 27 Sudeste 0 -- -- 88
2020-01-25 17:00:00 14.1 21 Sudeste 31 Sudeste 0 -- -- 83
2020-01-25 16:00:00 15.1 19 Sudeste 28 Sudeste 0 -- -- 74
2020-01-25 15:00:00 15.9 16 Sudeste 28 Sudeste 0 -- -- 73
2020-01-25 14:00:00 16.4 18 Sudeste 29 Sudeste 0 -- -- 67
2020-01-25 13:00:00 15.6 15 Sudeste 29 Sudeste 0 -- -- 71
2020-01-25 12:00:00 15.2 14 Sudeste 26 Sudeste 0 -- -- 77
2020-01-25 11:00:00 14.3 14 Sudeste 28 Sur 0 -- -- 85
2020-01-25 10:00:00 12.9 13 Sudeste 20 Sudeste 0 -- -- 92
2020-01-25 09:00:00 11.2 10 Sudeste 16 Sudeste 0 -- -- 94
2020-01-25 08:00:00 10.6 11 Sudeste 17 Sudeste 0.2 -- -- 95
2020-01-25 07:00:00 10.6 9 Sur 14 Sur 0 -- -- 95
2020-01-25 06:00:00 10.5 10 Sur 15 Sudeste 0 -- -- 95
2020-01-25 05:00:00 10.2 9 Sudeste 17 Sudeste 0 -- -- 96
2020-01-25 04:00:00 10.6 9 Sudeste 16 Sur 0 -- -- 95
2020-01-25 03:00:00 10.2 5 Sur 11 Sur 0 -- -- 95
2020-01-25 02:00:00 10 7 Sur 10 Sur 0 -- -- 95
2020-01-25 01:00:00 8.9 4 Sur 6 Sur 0 -- -- 95
2020-01-25 00:00:00 8.5 2 Sudoeste 5 Sudoeste 0 -- -- 95
2020-01-24 23:00:00 9.1 3 Sudoeste 4 Oeste 0 -- -- 96
2020-01-24 22:00:00 8.8 0 Calma 6 Sudoeste 0 -- -- 96
2020-01-24 21:00:00 9.3 4 Sudoeste 7 Sudoeste 0 -- -- 94
2020-01-24 20:00:00 9.4 4 Sudoeste 5 Sudoeste 0 -- -- 93
2020-01-24 19:00:00 10.4 0 Calma 5 Oeste 0 -- -- 90
2020-01-24 18:00:00 11.4 5 Oeste 11 Norte 0 -- -- 86
2020-01-24 17:00:00 13.2 8 Norte 17 Norte 0 -- -- 82
2020-01-24 16:00:00 13.9 9 Norte 17 Noroeste 0 -- -- 82
2020-01-24 15:00:00 13.8 10 Norte 21 Norte 0 -- -- 82
2020-01-24 14:00:00 14.9 14 Norte 18 Norte 0 -- -- 74
2020-01-24 13:00:00 14.5 10 Norte 19 Norte 0 -- -- 82
2020-01-24 12:00:00 14.2 8 Norte 20 Norte 0 -- -- 91
2020-01-24 11:00:00 13.1 12 Norte 17 Norte 0 -- -- 95
2020-01-24 10:00:00 12.8 0 Calma 5 Norte 0 -- -- 95
2020-01-24 09:00:00 11.4 2 Noroeste 5 Noroeste 0.2 -- -- 96
2020-01-24 08:00:00 10 2 Noroeste 6 Oeste 0 -- -- 96
2020-01-24 07:00:00 10.3 0 Calma 4 Oeste 0 -- -- 96
2020-01-24 06:00:00 11.3 0 Calma 4 Oeste 0 -- -- 96
2020-01-24 05:00:00 11.6 3 Sudeste 4 Sudeste 0 -- -- 96
2020-01-24 04:00:00 11.3 0 Calma 4 Noroeste 0 -- -- 96
2020-01-24 03:00:00 11 0 Calma 2 Oeste 0 -- -- 95
2020-01-24 02:00:00 11.1 0 Calma 2 Sudoeste 0 -- -- 95
2020-01-24 01:00:00 10.6 2 Oeste 5 Este 0 -- -- 95
2020-01-24 00:00:00 11 0 Calma 0 Calma 0 -- -- 95
2020-01-23 23:00:00 10.2 0 Calma 2 Oeste 0 -- -- 95
2020-01-23 22:00:00 11.1 3 Noroeste 6 Noroeste 0 -- -- 93
2020-01-23 21:00:00 11.7 3 Norte 6 Norte 0 -- -- 92
2020-01-23 20:00:00 11.9 4 Norte 8 Nordeste 0 -- -- 91
2020-01-23 19:00:00 11.9 4 Norte 8 Noroeste 0 -- -- 89
2020-01-23 18:00:00 12.6 4 Noroeste 8 Norte 0 -- -- 86
2020-01-23 17:00:00 13.5 5 Norte 11 Noroeste 0 -- -- 82
2020-01-23 16:00:00 14.2 6 Norte 12 Norte 0 -- -- 77
2020-01-23 15:00:00 17.6 4 Sur 13 Sudoeste 0 -- -- 64
2020-01-23 14:00:00 15.9 8 Sudoeste 15 Sur 0 -- -- 71
2020-01-23 13:00:00 15.5 10 Sur 20 Sur 0 -- -- 71
2020-01-23 12:00:00 14.7 14 Sur 21 Sur 0 -- -- 74
2020-01-23 11:00:00 14.5 14 Sur 22 Sur 0 -- -- 78
2020-01-23 10:00:00 14 8 Sur 13 Sur 0 -- -- 82
2020-01-23 09:00:00 12 4 Sur 13 Sur 0 -- -- 87
2020-01-23 08:00:00 11.5 7 Sur 18 Sudoeste 0 -- -- 87
2020-01-23 07:00:00 11.8 9 Sur 15 Sur 0 -- -- 90
2020-01-23 06:00:00 12.6 9 Sudeste 13 Sudeste 0 -- -- 90
2020-01-23 05:00:00 13.2 6 Sur 13 Sur 0 -- -- 89
2020-01-23 04:00:00 13.8 9 Sudeste 21 Sur 0 -- -- 91
2020-01-23 03:00:00 14.3 15 Sur 36 Sudeste 0 -- -- 89
2020-01-23 02:00:00 14.4 22 Sur 48 Sur 0.2 -- -- 88
2020-01-23 01:00:00 14.4 28 Sur 45 Sudeste 1.8 -- -- 87
2020-01-23 00:00:00 14.7 17 Sur 48 Este 0.2 -- -- 82
2020-01-22 23:00:00 14.7 14 Sur 53 Sudeste 0 -- -- 83
2020-01-22 22:00:00 14.6 23 Este 57 Este 0 -- -- 84
2020-01-22 21:00:00 14.5 30 Este 54 Este 0 -- -- 84
2020-01-22 20:00:00 14.4 23 Sudeste 47 Sudeste 0 -- -- 83
2020-01-22 19:00:00 14.3 23 Sudeste 52 Sudeste 0 -- -- 83
2020-01-22 18:00:00 14.3 22 Sudeste 49 Sudeste 0 -- -- 83
2020-01-22 17:00:00 14.4 26 Sudeste 55 Sudeste 0 -- -- 83
2020-01-22 16:00:00 14.8 28 Sudeste 56 Sudeste 0 -- -- 81
2020-01-22 15:00:00 15.4 33 Sudeste 56 Sudeste 0 -- -- 79
2020-01-22 14:00:00 15.4 32 Sudeste 63 Este 0 -- -- 79
2020-01-22 13:00:00 15.8 32 Sudeste 62 Sudeste 0 -- -- 78
2020-01-22 12:00:00 15.5 28 Este 60 Este 0 -- -- 81
2020-01-22 11:00:00 14.9 26 Este 51 Este 0 -- -- 84
2020-01-22 10:00:00 14.4 21 Este 49 Este 0 -- -- 85
2020-01-22 09:00:00 14.1 22 Este 47 Este 0 -- -- 86
2020-01-22 08:00:00 13.8 19 Sudeste 41 Sudeste 0 -- -- 87
2020-01-22 07:00:00 13.9 18 Sudeste 30 Sudeste 0 -- -- 88
2020-01-22 06:00:00 13.9 13 Sudeste 24 Sudeste 0 -- -- 89
2020-01-22 05:00:00 14.2 14 Sudeste 28 Sudeste 0 -- -- 87
2020-01-22 04:00:00 14 18 Sur 28 Sur 0 -- -- 89
2020-01-22 03:00:00 13.8 17 Sudeste 35 Este 0 -- -- 87
2020-01-22 02:00:00 14 21 Este 45 Este 0 -- -- 87
2020-01-22 01:00:00 14.1 32 Este 51 Este 0 -- -- 87
2020-01-22 00:00:00 14.3 31 Este 54 Este 0 -- -- 86